createdAt,value
2018-03-24T00:04:21.125Z,23.27
2018-03-24T00:09:37.522Z,20.83
2018-03-24T00:14:44.144Z,24.00
2018-03-24T00:19:50.629Z,23.00
2018-03-24T00:24:56.405Z,23.03
2018-03-24T00:30:02.153Z,20.90
2018-03-24T00:35:07.932Z,22.30
2018-03-24T00:40:23.457Z,21.37
2018-03-24T00:45:29.300Z,23.70
2018-03-24T00:50:33.187Z,22.23
2018-03-24T00:55:40.368Z,23.27
2018-03-24T01:00:46.222Z,22.10
2018-03-24T01:05:56.345Z,21.60
2018-03-24T01:11:03.694Z,24.30
2018-03-24T01:16:09.017Z,23.93
2018-03-24T01:21:17.226Z,24.03
2018-03-24T01:26:23.689Z,22.83
2018-03-24T01:31:29.549Z,26.30
2018-03-24T01:36:36.081Z,24.03
2018-03-24T01:41:42.361Z,23.13
2018-03-24T01:46:49.150Z,25.50
2018-03-24T01:51:54.424Z,23.93
2018-03-24T01:57:00.634Z,23.70
2018-03-24T02:02:05.605Z,28.63
2018-03-24T02:07:13.370Z,28.07
2018-03-24T02:12:22.082Z,25.80
2018-03-24T02:17:29.264Z,23.10
2018-03-24T02:22:39.933Z,27.10
2018-03-24T02:27:41.687Z,24.30
2018-03-24T02:32:47.757Z,24.50
2018-03-24T02:37:58.034Z,24.90
2018-03-24T02:43:06.375Z,24.60
2018-03-24T02:48:13.030Z,29.30
2018-03-24T02:53:19.506Z,28.60
2018-03-24T02:58:28.445Z,28.30
2018-03-24T03:03:35.558Z,29.03
2018-03-24T03:08:42.050Z,30.30
2018-03-24T03:13:51.279Z,29.43
2018-03-24T03:18:58.468Z,25.50
2018-03-24T03:24:04.585Z,25.80
2018-03-24T03:29:11.309Z,28.33
2018-03-24T03:34:21.276Z,30.67
2018-03-24T03:39:30.453Z,26.43
2018-03-24T03:44:39.603Z,26.53
2018-03-24T03:49:58.241Z,27.60
2018-03-24T03:55:05.138Z,25.67
2018-03-24T04:00:16.586Z,29.97
2018-03-24T04:05:22.858Z,34.07
2018-03-24T04:10:36.405Z,32.90
2018-03-24T04:15:41.830Z,33.70
2018-03-24T04:20:51.599Z,35.87
2018-03-24T04:25:58.399Z,36.53
2018-03-24T04:31:04.913Z,36.93
2018-03-24T04:36:09.717Z,34.17
2018-03-24T04:41:14.369Z,36.07
2018-03-24T04:46:23.220Z,35.27
2018-03-24T04:51:32.214Z,33.60
2018-03-24T04:56:36.683Z,34.17
2018-03-24T05:01:41.177Z,35.60
2018-03-24T05:06:47.672Z,36.60
2018-03-24T05:11:55.686Z,39.53
2018-03-24T05:17:03.001Z,39.57
2018-03-24T05:22:10.760Z,40.70
2018-03-24T05:27:16.110Z,40.97
2018-03-24T05:32:25.838Z,42.93
2018-03-24T05:37:35.805Z,43.00
2018-03-24T05:42:41.558Z,43.93
2018-03-24T05:47:53.036Z,39.60
2018-03-24T05:52:58.445Z,44.33
2018-03-24T05:58:04.615Z,41.60
2018-03-24T06:03:09.959Z,39.27
2018-03-24T06:08:16.154Z,35.80
2018-03-24T06:13:22.337Z,33.43
2018-03-24T06:18:29.293Z,29.93
2018-03-24T06:23:36.123Z,28.93
2018-03-24T06:28:40.255Z,30.23
2018-03-24T06:33:44.073Z,25.73
2018-03-24T06:38:52.407Z,28.10
2018-03-24T06:43:56.762Z,29.63
2018-03-24T06:49:00.471Z,32.53
2018-03-24T06:54:04.664Z,27.07
2018-03-24T06:59:10.138Z,33.83
2018-03-24T07:04:14.985Z,32.57
2018-03-24T07:09:18.929Z,32.67
2018-03-24T07:14:22.982Z,31.50
2018-03-24T07:19:30.885Z,27.73
2018-03-24T07:24:36.380Z,28.37
2018-03-24T07:29:40.299Z,28.17
2018-03-24T07:34:45.285Z,28.30
2018-03-24T07:39:49.059Z,29.50
2018-03-24T07:44:53.596Z,28.00
2018-03-24T07:49:58.874Z,28.87
2018-03-24T07:55:03.285Z,30.57
2018-03-24T08:00:08.097Z,33.17
2018-03-24T08:05:11.878Z,30.37
2018-03-24T08:10:15.764Z,27.73
2018-03-24T08:15:19.601Z,30.07
2018-03-24T08:20:23.891Z,31.67
2018-03-24T08:25:28.191Z,30.00
2018-03-24T08:30:32.578Z,31.10
2018-03-24T08:35:36.630Z,29.80
2018-03-24T08:40:40.145Z,30.40
2018-03-24T08:45:45.623Z,29.73
2018-03-24T08:50:49.609Z,30.57
2018-03-24T08:55:54.058Z,29.60
2018-03-24T09:00:57.575Z,26.37
2018-03-24T09:06:00.686Z,32.23
2018-03-24T09:11:05.828Z,26.47
2018-03-24T09:16:14.639Z,23.47
2018-03-24T09:21:18.766Z,25.17
2018-03-24T09:26:26.413Z,26.53
2018-03-24T09:31:32.078Z,26.13
2018-03-24T09:36:38.285Z,23.57
2018-03-24T09:41:43.353Z,22.30
2018-03-24T09:46:47.787Z,17.73
2018-03-24T09:51:51.984Z,19.07
2018-03-24T09:56:56.568Z,18.83
2018-03-24T10:02:00.189Z,16.37
2018-03-24T10:07:01.830Z,17.70
2018-03-24T10:12:03.421Z,18.47
2018-03-24T10:17:12.088Z,15.80
2018-03-24T10:38:31.549Z,13.40
2018-03-24T10:43:39.036Z,14.47
2018-03-24T10:48:41.328Z,13.43
2018-03-24T10:53:42.957Z,13.83
2018-03-24T10:58:44.649Z,12.90
2018-03-24T11:03:46.212Z,11.70
2018-03-24T11:08:47.913Z,12.30
2018-03-24T11:13:49.504Z,11.63
2018-03-24T11:18:51.801Z,12.50
2018-03-24T11:23:53.324Z,12.90
2018-03-24T11:28:54.860Z,13.50
2018-03-24T11:33:56.444Z,13.53
2018-03-24T11:38:58.047Z,13.53
2018-03-24T11:43:59.601Z,12.90
2018-03-24T11:49:01.422Z,12.37
2018-03-24T11:54:02.975Z,10.97
2018-03-24T11:59:05.271Z,12.20
2018-03-24T12:04:06.848Z,10.03
2018-03-24T12:09:08.497Z,10.83
2018-03-24T12:14:10.824Z,11.20
2018-03-24T12:19:12.430Z,10.10
2018-03-24T12:24:13.963Z,8.70
2018-03-24T12:29:15.524Z,9.30
2018-03-24T12:34:17.291Z,8.17
2018-03-24T12:39:18.814Z,8.33
2018-03-24T12:44:22.690Z,9.30
2018-03-24T12:49:24.915Z,9.10
2018-03-24T12:54:30.097Z,9.03
2018-03-24T12:59:33.809Z,9.70
2018-03-24T13:04:39.425Z,9.97
2018-03-24T13:09:44.846Z,9.43
2018-03-24T13:14:48.597Z,9.13
2018-03-24T13:19:52.057Z,9.67
2018-03-24T13:24:57.741Z,8.40
2018-03-24T13:30:02.582Z,8.77
2018-03-24T13:35:07.272Z,7.90
2018-03-24T13:40:12.484Z,9.30
2018-03-24T13:45:16.480Z,9.27
2018-03-24T13:50:21.828Z,9.40
2018-03-24T13:55:26.156Z,8.73
2018-03-24T14:00:30.475Z,9.67
2018-03-24T14:05:36.890Z,10.50
2018-03-24T14:10:41.782Z,9.80
2018-03-24T14:15:46.070Z,9.30
2018-03-24T14:20:51.826Z,8.97
2018-03-24T14:25:56.766Z,8.27
2018-03-24T14:31:03.548Z,8.53
2018-03-24T14:36:09.180Z,8.53
2018-03-24T14:41:14.474Z,8.40
2018-03-24T14:46:20.144Z,10.33
2018-03-24T14:51:29.599Z,9.40
2018-03-24T14:56:36.611Z,8.30
2018-03-24T15:01:44.297Z,9.90
2018-03-24T15:06:51.393Z,9.20
2018-03-24T15:11:56.262Z,10.13
2018-03-24T15:17:02.429Z,9.70
2018-03-24T15:22:07.283Z,9.50
2018-03-24T15:27:12.415Z,8.60
2018-03-24T15:32:34.047Z,9.43
2018-03-24T15:37:42.964Z,9.40
2018-03-24T15:42:47.706Z,11.03
2018-03-24T15:47:51.860Z,10.37
2018-03-24T15:52:57.857Z,10.30
2018-03-24T15:58:03.031Z,11.20
2018-03-24T16:03:09.297Z,9.13
2018-03-24T16:08:15.304Z,9.60
2018-03-24T16:13:20.477Z,10.93
2018-03-24T16:18:28.090Z,10.40
2018-03-24T16:23:34.147Z,9.60
2018-03-24T16:28:39.990Z,11.00
2018-03-24T16:33:46.299Z,9.73
2018-03-24T16:38:52.413Z,9.27
2018-03-24T16:43:57.082Z,10.20
2018-03-24T16:49:02.629Z,10.70
2018-03-24T16:54:07.993Z,11.30
2018-03-24T16:59:13.598Z,10.73
2018-03-24T17:04:19.958Z,10.13
2018-03-24T17:09:24.492Z,10.37
2018-03-24T17:14:30.098Z,10.50
2018-03-24T17:19:37.227Z,11.70
2018-03-24T17:24:43.914Z,10.20
2018-03-24T17:29:50.385Z,11.03
2018-03-24T17:34:56.666Z,9.67
2018-03-24T17:40:02.875Z,10.70
2018-03-24T17:45:07.385Z,11.20
2018-03-24T17:50:12.994Z,12.03
2018-03-24T17:55:19.130Z,12.17
2018-03-24T18:00:24.846Z,12.07
2018-03-24T18:05:31.580Z,13.73
2018-03-24T18:10:38.624Z,10.73
2018-03-24T18:15:50.400Z,13.07
2018-03-24T18:20:57.876Z,12.40
2018-03-24T18:26:08.165Z,13.30
2018-03-24T18:31:17.194Z,13.60
2018-03-24T18:36:22.548Z,14.53
2018-03-24T18:41:29.401Z,29.67
2018-03-24T18:46:36.592Z,17.20
2018-03-24T18:51:42.685Z,20.70
2018-03-24T18:56:48.164Z,12.73
2018-03-24T19:01:53.150Z,17.47
2018-03-24T19:06:58.869Z,14.37
2018-03-24T19:12:04.997Z,60.70
2018-03-24T19:17:12.396Z,34.53
2018-03-24T19:22:21.032Z,25.50
2018-03-24T19:27:28.324Z,16.37
2018-03-24T19:32:31.905Z,19.53
2018-03-24T19:37:35.258Z,16.07
2018-03-24T19:42:40.454Z,16.80
2018-03-24T19:47:43.825Z,12.17
2018-03-24T19:52:49.280Z,13.93
2018-03-24T19:57:52.933Z,15.70
2018-03-24T20:02:56.751Z,14.93
2018-03-24T20:08:00.050Z,15.20
2018-03-24T20:13:03.418Z,15.17
2018-03-24T20:18:07.787Z,15.10
2018-03-24T20:23:11.497Z,13.53
2018-03-24T20:28:15.455Z,14.90
2018-03-24T20:33:20.515Z,14.53
2018-03-24T20:38:25.567Z,18.20
2018-03-24T20:43:29.132Z,17.43
2018-03-24T20:48:33.019Z,14.23
2018-03-24T20:53:36.706Z,15.63
2018-03-24T20:58:41.745Z,15.33
2018-03-24T21:03:47.058Z,17.33
2018-03-24T21:08:52.605Z,17.33
2018-03-24T21:13:56.439Z,16.87
2018-03-24T21:19:00.095Z,17.33
2018-03-24T21:24:11.734Z,18.13
2018-03-24T21:29:16.455Z,17.37
2018-03-24T21:34:20.185Z,15.73
2018-03-24T21:39:24.421Z,16.67
2018-03-24T21:44:29.393Z,17.90
2018-03-24T21:49:44.447Z,15.97
2018-03-24T21:54:48.308Z,17.27
2018-03-24T21:59:52.892Z,14.90
2018-03-24T22:04:57.925Z,15.47
2018-03-24T22:10:02.332Z,16.00
2018-03-24T22:15:05.964Z,16.17
2018-03-24T22:20:09.674Z,15.90
2018-03-24T22:25:13.750Z,15.83
2018-03-24T22:30:18.791Z,15.57
2018-03-24T22:35:24.199Z,16.53
2018-03-24T22:40:27.989Z,16.83
2018-03-24T22:45:32.147Z,15.43
2018-03-24T22:50:36.184Z,14.30
2018-03-24T22:55:40.757Z,16.13
2018-03-24T23:00:49.188Z,15.97
2018-03-24T23:05:51.384Z,15.07
2018-03-24T23:10:52.966Z,15.70
2018-03-24T23:15:54.560Z,16.20
2018-03-24T23:20:56.033Z,14.40
2018-03-24T23:25:57.642Z,14.27
2018-03-24T23:30:59.938Z,15.40
2018-03-24T23:36:01.617Z,15.80
2018-03-24T23:41:03.375Z,16.07
2018-03-24T23:46:05.643Z,16.43
2018-03-24T23:51:07.954Z,14.30
2018-03-24T23:56:09.502Z,15.77
